createdAt,value
2022-07-25T00:00:33.743Z,9.50
2022-07-25T00:03:02.130Z,9.55
2022-07-25T00:05:35.831Z,8.88
2022-07-25T00:08:06.408Z,10.20
2022-07-25T00:10:35.821Z,10.35
2022-07-25T00:13:03.913Z,9.57
2022-07-25T00:15:32.186Z,9.02
2022-07-25T00:18:00.228Z,9.65
2022-07-25T00:20:28.290Z,9.98
2022-07-25T00:22:56.298Z,9.07
2022-07-25T00:25:24.339Z,8.90
2022-07-25T00:27:53.781Z,9.23
2022-07-25T00:30:22.010Z,9.82
2022-07-25T00:32:50.019Z,9.10
2022-07-25T00:35:18.098Z,9.60
2022-07-25T00:37:46.109Z,9.48
2022-07-25T00:40:14.620Z,10.00
2022-07-25T00:42:42.678Z,9.82
2022-07-25T00:45:12.771Z,10.43
2022-07-25T00:47:40.791Z,11.13
2022-07-25T00:50:10.050Z,11.05
2022-07-25T00:52:38.162Z,11.15
2022-07-25T00:55:07.473Z,11.10
2022-07-25T00:57:36.466Z,10.80
2022-07-25T01:00:07.170Z,10.82
2022-07-25T01:02:36.829Z,11.05
2022-07-25T01:05:05.331Z,11.02
2022-07-25T01:07:33.838Z,11.52
2022-07-25T01:10:02.286Z,10.68
2022-07-25T01:12:30.372Z,11.05
2022-07-25T01:14:58.625Z,12.20
2022-07-25T01:17:26.682Z,10.90
2022-07-25T01:19:56.066Z,12.00
2022-07-25T01:22:25.470Z,11.35
2022-07-25T01:24:53.479Z,11.52
2022-07-25T01:27:21.522Z,10.98
2022-07-25T01:29:49.531Z,11.93
2022-07-25T01:32:17.572Z,12.98
2022-07-25T01:34:45.538Z,12.20
2022-07-25T01:37:13.538Z,12.73
2022-07-25T01:39:42.979Z,11.32
2022-07-25T01:42:11.016Z,13.10
2022-07-25T01:44:39.026Z,12.98
2022-07-25T01:47:07.327Z,12.70
2022-07-25T01:49:35.419Z,11.38
2022-07-25T01:52:03.477Z,12.75
2022-07-25T01:54:32.294Z,11.38
2022-07-25T01:57:01.753Z,10.98
2022-07-25T01:59:29.919Z,11.77
2022-07-25T02:01:58.299Z,10.95
2022-07-25T02:04:26.449Z,11.10
2022-07-25T02:06:54.547Z,10.93
2022-07-25T02:09:22.758Z,10.95
2022-07-25T02:11:50.790Z,11.32
2022-07-25T02:14:20.247Z,11.07
2022-07-25T02:16:48.355Z,10.52
2022-07-25T02:19:16.423Z,11.35
2022-07-25T02:21:44.618Z,10.68
2022-07-25T02:24:12.794Z,11.68
2022-07-25T02:26:40.835Z,12.18
2022-07-25T02:29:08.983Z,11.93
2022-07-25T02:31:38.622Z,10.77
2022-07-25T02:34:07.026Z,11.45
2022-07-25T02:36:35.441Z,11.70
2022-07-25T02:39:03.879Z,10.55
2022-07-25T02:41:32.022Z,11.77
2022-07-25T02:44:00.145Z,11.45
2022-07-25T02:46:28.225Z,10.90
2022-07-25T02:48:57.780Z,11.07
2022-07-25T02:51:25.989Z,10.70
2022-07-25T02:53:57.801Z,10.95
2022-07-25T02:56:29.881Z,11.00
2022-07-25T02:58:58.560Z,11.38
2022-07-25T03:01:27.108Z,11.20
2022-07-25T03:03:55.216Z,11.18
2022-07-25T03:06:24.654Z,10.77
2022-07-25T03:08:52.720Z,11.57
2022-07-25T03:11:22.386Z,10.60
2022-07-25T03:13:50.455Z,10.55
2022-07-25T03:16:18.557Z,10.55
2022-07-25T03:18:47.036Z,11.25
2022-07-25T03:21:15.130Z,11.10
2022-07-25T03:23:47.899Z,11.70
2022-07-25T03:26:18.538Z,11.68
2022-07-25T03:28:46.608Z,10.68
2022-07-25T03:31:14.652Z,10.80
2022-07-25T03:33:42.666Z,11.40
2022-07-25T03:36:11.666Z,12.23
2022-07-25T03:38:40.453Z,12.07
2022-07-25T03:41:09.897Z,12.30
2022-07-25T03:43:38.346Z,12.20
2022-07-25T03:46:06.437Z,13.32
2022-07-25T03:48:34.566Z,12.57
2022-07-25T03:51:06.848Z,12.30
2022-07-25T03:53:55.491Z,12.40
2022-07-25T03:56:24.878Z,12.32
2022-07-25T03:58:52.871Z,12.30
2022-07-25T04:01:20.998Z,13.07
2022-07-25T04:03:50.257Z,11.57
2022-07-25T04:06:18.745Z,13.15
2022-07-25T04:08:46.807Z,13.13
2022-07-25T04:11:14.803Z,12.95
2022-07-25T04:13:44.387Z,12.95
2022-07-25T04:16:14.834Z,13.23
2022-07-25T04:18:46.521Z,13.25
2022-07-25T04:21:17.567Z,13.23
2022-07-25T04:23:45.566Z,13.05
2022-07-25T04:26:13.585Z,12.82
2022-07-25T04:28:41.564Z,12.40
2022-07-25T04:31:10.970Z,12.43
2022-07-25T04:33:39.228Z,12.73
2022-07-25T04:36:08.078Z,13.43
2022-07-25T04:38:36.394Z,13.82
2022-07-25T04:41:05.160Z,13.68
2022-07-25T04:43:33.259Z,13.35
2022-07-25T04:46:01.464Z,14.02
2022-07-25T04:48:31.689Z,14.25
2022-07-25T04:50:59.740Z,12.88
2022-07-25T04:53:27.853Z,12.82
2022-07-25T04:55:55.846Z,12.88
2022-07-25T04:58:23.841Z,14.50
2022-07-25T05:00:52.348Z,12.60
2022-07-25T05:03:20.387Z,12.70
2022-07-25T05:05:49.887Z,12.45
2022-07-25T05:08:17.992Z,12.95
2022-07-25T05:10:46.050Z,12.07
2022-07-25T05:13:14.103Z,11.20
2022-07-25T05:15:44.356Z,11.55
2022-07-25T05:18:12.368Z,11.70
2022-07-25T05:20:40.739Z,11.30
2022-07-25T05:23:10.143Z,11.18
2022-07-25T05:25:38.131Z,11.30
2022-07-25T05:28:06.501Z,10.80
2022-07-25T05:30:39.626Z,10.07
2022-07-25T05:33:08.043Z,11.20
2022-07-25T05:35:36.068Z,10.52
2022-07-25T05:38:04.166Z,10.70
2022-07-25T05:40:33.584Z,10.70
2022-07-25T05:43:03.507Z,10.50
2022-07-25T05:45:32.238Z,10.10
2022-07-25T05:48:00.235Z,10.88
2022-07-25T05:50:28.270Z,11.55
2022-07-25T05:52:56.351Z,11.57
2022-07-25T05:55:24.347Z,11.98
2022-07-25T05:57:53.764Z,11.90
2022-07-25T06:00:21.818Z,10.85
2022-07-25T06:02:49.896Z,11.65
2022-07-25T06:05:18.135Z,11.40
2022-07-25T06:07:46.387Z,11.70
2022-07-25T06:10:14.397Z,11.43
2022-07-25T06:12:42.439Z,12.27
2022-07-25T06:15:22.307Z,12.70
2022-07-25T06:17:54.881Z,11.55
2022-07-25T06:20:23.259Z,11.73
2022-07-25T06:22:51.643Z,11.93
2022-07-25T06:25:20.389Z,11.65
2022-07-25T06:27:48.615Z,11.25
2022-07-25T06:30:20.373Z,11.88
2022-07-25T06:32:48.983Z,11.02
2022-07-25T06:35:17.806Z,12.27
2022-07-25T06:37:46.185Z,12.63
2022-07-25T06:40:14.924Z,11.63
2022-07-25T06:42:45.006Z,11.63
2022-07-25T06:45:15.641Z,11.90
2022-07-25T06:47:46.403Z,11.82
2022-07-25T06:50:16.227Z,11.68
2022-07-25T06:52:44.250Z,11.55
2022-07-25T06:55:13.961Z,11.95
2022-07-25T06:57:42.269Z,12.10
2022-07-25T07:00:12.896Z,12.15
2022-07-25T07:02:52.032Z,12.38
2022-07-25T07:05:20.578Z,11.35
2022-07-25T07:07:48.800Z,11.55
2022-07-25T07:10:17.246Z,12.20
2022-07-25T07:12:45.310Z,11.65
2022-07-25T07:15:13.735Z,11.30
2022-07-25T07:17:41.902Z,10.65
2022-07-25T07:20:12.353Z,11.10
2022-07-25T07:22:46.314Z,10.90
2022-07-25T07:25:16.614Z,11.50
2022-07-25T07:27:46.443Z,10.85
2022-07-25T07:30:18.562Z,10.98
2022-07-25T07:32:50.373Z,9.75
2022-07-25T07:35:19.890Z,10.35
2022-07-25T07:37:48.346Z,10.18
2022-07-25T07:40:18.103Z,10.45
2022-07-25T07:42:48.722Z,9.77
2022-07-25T07:45:18.865Z,10.73
2022-07-25T07:47:48.808Z,10.45
2022-07-25T07:50:21.215Z,10.13
2022-07-25T07:52:51.043Z,10.47
2022-07-25T07:55:36.448Z,10.40
2022-07-25T07:58:04.760Z,10.05
2022-07-25T08:00:35.103Z,9.52
2022-07-25T08:03:04.651Z,9.73
2022-07-25T08:05:36.480Z,10.15
2022-07-25T08:08:06.897Z,10.20
2022-07-25T08:10:37.126Z,9.88
2022-07-25T08:13:14.398Z,8.98
2022-07-25T08:15:43.122Z,9.32
2022-07-25T08:18:17.420Z,9.07
2022-07-25T08:20:48.123Z,9.00
2022-07-25T08:23:16.569Z,9.00
2022-07-25T08:25:44.917Z,8.93
2022-07-25T08:28:13.004Z,9.55
2022-07-25T08:30:42.311Z,8.38
2022-07-25T08:33:13.533Z,8.88
2022-07-25T08:35:42.211Z,8.68
2022-07-25T08:38:12.244Z,8.57
2022-07-25T08:40:40.447Z,9.48
2022-07-25T08:43:12.948Z,9.30
2022-07-25T08:45:45.490Z,9.27
2022-07-25T08:48:13.560Z,8.13
2022-07-25T08:50:41.846Z,8.40
2022-07-25T08:53:32.189Z,8.88
2022-07-25T08:55:59.952Z,7.93
2022-07-25T08:58:27.967Z,8.68
2022-07-25T09:00:55.979Z,8.27
2022-07-25T09:03:24.016Z,9.00
2022-07-25T09:05:52.664Z,8.18
2022-07-25T09:08:22.035Z,8.52
2022-07-25T09:10:51.391Z,8.40
2022-07-25T09:13:21.351Z,7.85
2022-07-25T09:15:51.134Z,8.48
2022-07-25T09:18:24.315Z,8.00
2022-07-25T09:20:54.392Z,8.82
2022-07-25T09:23:31.291Z,7.95
2022-07-25T09:26:07.185Z,7.38
2022-07-25T09:28:42.484Z,6.68
2022-07-25T09:31:11.188Z,7.18
2022-07-25T09:33:47.337Z,7.55
2022-07-25T09:36:15.815Z,7.30
2022-07-25T09:38:54.385Z,7.32
2022-07-25T09:41:23.188Z,7.70
2022-07-25T09:43:51.477Z,7.43
2022-07-25T09:46:19.598Z,7.03
2022-07-25T09:48:59.331Z,7.18
2022-07-25T09:51:27.852Z,7.43
2022-07-25T09:53:57.287Z,7.35
2022-07-25T09:56:25.982Z,7.10
2022-07-25T09:58:54.100Z,7.15
2022-07-25T10:01:26.816Z,6.88
2022-07-25T10:04:07.231Z,6.80
2022-07-25T10:06:41.215Z,6.93
2022-07-25T10:09:14.201Z,7.28
2022-07-25T10:11:42.927Z,6.93
2022-07-25T10:14:12.906Z,7.03
2022-07-25T10:16:47.861Z,7.20
2022-07-25T10:19:16.311Z,6.35
2022-07-25T10:21:55.815Z,6.25
2022-07-25T10:24:34.974Z,7.03
2022-07-25T10:27:09.766Z,7.25
2022-07-25T10:29:39.070Z,7.22
2022-07-25T10:32:09.423Z,6.68
2022-07-25T10:34:38.380Z,6.55
2022-07-25T10:37:14.736Z,6.63
2022-07-25T10:39:45.840Z,6.85
2022-07-25T10:42:15.743Z,7.10
2022-07-25T10:44:45.946Z,6.63
2022-07-25T10:47:15.609Z,6.60
2022-07-25T10:50:13.531Z,6.13
2022-07-25T10:52:41.572Z,6.40
2022-07-25T10:55:11.267Z,6.85
2022-07-25T10:57:55.062Z,7.00
2022-07-25T11:00:28.610Z,6.30
2022-07-25T11:02:58.339Z,6.88
2022-07-25T11:05:27.027Z,6.88
2022-07-25T11:08:20.566Z,6.43
2022-07-25T11:11:04.857Z,6.65
2022-07-25T11:13:41.119Z,5.90
2022-07-25T11:16:10.936Z,6.50
2022-07-25T11:18:41.133Z,6.18
2022-07-25T11:21:11.215Z,6.70
2022-07-25T11:23:41.606Z,6.32
2022-07-25T11:26:14.230Z,6.20
2022-07-25T11:28:45.594Z,5.85
2022-07-25T11:31:15.691Z,7.22
2022-07-25T11:33:47.227Z,6.07
2022-07-25T11:36:15.986Z,5.90
2022-07-25T11:38:48.485Z,6.95
2022-07-25T11:41:28.777Z,6.18
2022-07-25T11:43:57.510Z,6.57
2022-07-25T11:46:26.171Z,6.20
2022-07-25T11:49:08.662Z,6.13
2022-07-25T11:51:39.313Z,5.57
2022-07-25T11:54:13.456Z,5.93
2022-07-25T11:56:44.478Z,6.28
2022-07-25T11:59:12.853Z,6.15
2022-07-25T12:01:42.720Z,5.85
2022-07-25T12:04:13.437Z,6.07
2022-07-25T12:06:42.413Z,6.32
2022-07-25T12:09:19.431Z,6.18
2022-07-25T12:11:51.301Z,5.82
2022-07-25T12:14:19.661Z,6.20
2022-07-25T12:16:47.870Z,6.47
2022-07-25T12:19:23.420Z,6.20
2022-07-25T12:21:52.207Z,5.93
2022-07-25T12:24:20.362Z,5.63
2022-07-25T12:26:49.942Z,6.18
2022-07-25T12:29:18.061Z,5.57
2022-07-25T12:31:46.296Z,5.97
2022-07-25T12:34:14.558Z,6.03
2022-07-25T12:36:45.345Z,5.85
2022-07-25T12:39:13.814Z,6.20
2022-07-25T12:41:43.120Z,5.70
2022-07-25T12:44:13.625Z,5.97
2022-07-25T12:46:48.843Z,5.68
2022-07-25T12:49:18.317Z,5.90
2022-07-25T12:51:46.466Z,6.03
2022-07-25T12:54:22.074Z,6.85
2022-07-25T12:56:50.749Z,6.00
2022-07-25T12:59:20.379Z,5.78
2022-07-25T13:01:48.680Z,5.90
2022-07-25T13:04:16.915Z,5.68
2022-07-25T13:06:45.242Z,6.05
2022-07-25T13:09:13.863Z,6.28
2022-07-25T13:11:42.623Z,5.97
2022-07-25T13:14:10.731Z,6.28
2022-07-25T13:16:40.964Z,5.40
2022-07-25T13:19:10.069Z,5.80
2022-07-25T13:21:38.840Z,5.45
2022-07-25T13:24:08.981Z,5.90
2022-07-25T13:26:37.930Z,5.55
2022-07-25T13:29:09.673Z,5.72
2022-07-25T13:31:41.308Z,5.73
2022-07-25T13:34:10.343Z,5.43
2022-07-25T13:36:39.743Z,6.13
2022-07-25T13:39:08.958Z,5.60
2022-07-25T13:41:37.594Z,5.95
2022-07-25T13:44:06.087Z,6.13
2022-07-25T13:46:36.194Z,6.13
2022-07-25T13:49:06.062Z,5.93
2022-07-25T13:51:34.521Z,6.45
2022-07-25T13:54:03.855Z,6.00
2022-07-25T13:56:32.734Z,5.55
2022-07-25T13:59:01.183Z,5.10
2022-07-25T14:01:29.295Z,5.78
2022-07-25T14:03:57.605Z,5.53
2022-07-25T14:06:27.354Z,5.47
2022-07-25T14:08:55.607Z,5.63
2022-07-25T14:11:28.571Z,6.00
2022-07-25T14:13:58.861Z,5.55
2022-07-25T14:16:27.280Z,6.15
2022-07-25T14:18:55.927Z,5.63
2022-07-25T14:21:24.255Z,5.40
2022-07-25T14:23:55.122Z,5.57
2022-07-25T14:26:23.319Z,5.20
2022-07-25T14:28:51.841Z,5.57
2022-07-25T14:31:19.980Z,5.43
2022-07-25T14:33:48.407Z,6.00
2022-07-25T14:36:16.593Z,5.60
2022-07-25T14:38:47.472Z,5.68
2022-07-25T14:41:17.659Z,5.72
2022-07-25T14:43:46.157Z,5.40
2022-07-25T14:46:15.035Z,5.28
2022-07-25T14:48:43.503Z,5.60
2022-07-25T14:51:11.668Z,5.60
2022-07-25T14:53:40.155Z,5.28
2022-07-25T14:56:09.019Z,5.18
2022-07-25T14:58:39.581Z,5.75
2022-07-25T15:01:09.348Z,5.25
2022-07-25T15:03:38.441Z,5.78
2022-07-25T15:06:10.106Z,5.82
2022-07-25T15:08:39.908Z,5.15
2022-07-25T15:11:08.376Z,5.40
2022-07-25T15:13:38.246Z,5.45
2022-07-25T15:16:06.881Z,5.22
2022-07-25T15:18:52.145Z,5.15
2022-07-25T15:21:23.209Z,5.35
2022-07-25T15:23:52.299Z,5.38
2022-07-25T15:26:20.530Z,5.45
2022-07-25T15:28:50.287Z,5.70
2022-07-25T15:31:18.776Z,5.47
2022-07-25T15:33:47.139Z,5.55
2022-07-25T15:36:15.370Z,5.50
2022-07-25T15:38:45.408Z,5.70
2022-07-25T15:41:14.246Z,5.43
2022-07-25T15:43:42.378Z,5.05
2022-07-25T15:46:14.336Z,5.53
2022-07-25T15:48:44.600Z,5.50
2022-07-25T15:51:12.803Z,5.43
2022-07-25T15:53:40.992Z,5.53
2022-07-25T15:56:10.547Z,5.75
2022-07-25T15:58:38.689Z,5.30
2022-07-25T16:01:07.231Z,5.75
2022-07-25T16:03:37.338Z,5.90
2022-07-25T16:06:05.862Z,5.55
2022-07-25T16:08:34.134Z,5.95
2022-07-25T16:11:02.275Z,5.22
2022-07-25T16:13:30.588Z,5.80
2022-07-25T16:15:59.046Z,5.50
2022-07-25T16:18:27.378Z,5.18
2022-07-25T16:20:57.042Z,5.97
2022-07-25T16:23:28.252Z,5.70
2022-07-25T16:25:56.279Z,5.43
2022-07-25T16:28:24.320Z,5.15
2022-07-25T16:30:52.734Z,5.30
2022-07-25T16:33:20.940Z,5.60
2022-07-25T16:35:49.291Z,5.97
2022-07-25T16:38:18.791Z,6.15
2022-07-25T16:40:46.905Z,6.07
2022-07-25T16:43:15.220Z,5.63
2022-07-25T16:45:43.770Z,5.50
2022-07-25T16:48:11.846Z,5.63
2022-07-25T16:50:39.941Z,6.05
2022-07-25T16:53:09.740Z,6.13
2022-07-25T16:55:40.019Z,6.03
2022-07-25T16:58:08.152Z,6.18
2022-07-25T17:00:36.386Z,6.30
2022-07-25T17:03:04.527Z,6.10
2022-07-25T17:05:32.661Z,5.80
2022-07-25T17:08:00.825Z,6.65
2022-07-25T17:10:30.020Z,6.05
2022-07-25T17:12:59.851Z,6.22
2022-07-25T17:15:28.266Z,5.95
2022-07-25T17:17:56.428Z,5.55
2022-07-25T17:20:24.625Z,5.90
2022-07-25T17:22:53.018Z,5.22
2022-07-25T17:25:21.238Z,5.47
2022-07-25T17:27:49.358Z,6.07
2022-07-25T17:30:19.126Z,5.18
2022-07-25T17:32:47.341Z,5.50
2022-07-25T17:35:15.610Z,6.30
2022-07-25T17:37:44.142Z,5.82
2022-07-25T17:40:12.832Z,6.15
2022-07-25T17:42:45.122Z,6.05
2022-07-25T17:45:14.040Z,6.57
2022-07-25T17:47:45.420Z,6.30
2022-07-25T17:50:14.429Z,7.25
2022-07-25T17:52:42.552Z,6.20
2022-07-25T17:55:12.129Z,6.90
2022-07-25T17:57:42.661Z,6.88
2022-07-25T18:00:11.987Z,7.22
2022-07-25T18:02:40.537Z,6.93
2022-07-25T18:05:11.427Z,6.53
2022-07-25T18:07:45.324Z,6.35
2022-07-25T18:10:13.950Z,6.72
2022-07-25T18:12:42.204Z,6.60
2022-07-25T18:15:12.289Z,7.03
2022-07-25T18:17:42.228Z,7.10
2022-07-25T18:20:13.581Z,5.93
2022-07-25T18:22:42.308Z,6.35
2022-07-25T18:25:13.078Z,6.80
2022-07-25T18:27:42.044Z,6.82
2022-07-25T18:30:11.031Z,6.43
2022-07-25T18:32:40.307Z,6.43
2022-07-25T18:35:11.054Z,6.32
2022-07-25T18:37:40.592Z,6.80
2022-07-25T18:40:09.798Z,6.68
2022-07-25T18:42:38.509Z,5.93
2022-07-25T18:45:07.859Z,7.13
2022-07-25T18:47:36.165Z,6.75
2022-07-25T18:50:05.830Z,7.50
2022-07-25T18:52:36.325Z,6.70
2022-07-25T18:55:08.498Z,7.13
2022-07-25T18:57:36.794Z,7.15
2022-07-25T19:00:06.170Z,7.05
2022-07-25T19:02:34.642Z,6.28
2022-07-25T19:05:02.909Z,6.78
2022-07-25T19:07:31.397Z,7.22
2022-07-25T19:09:59.543Z,7.00
2022-07-25T19:12:29.357Z,7.30
2022-07-25T19:14:57.479Z,7.10
2022-07-25T19:17:25.535Z,7.65
2022-07-25T19:19:53.958Z,7.65
2022-07-25T19:22:22.314Z,7.03
2022-07-25T19:24:50.397Z,7.43
2022-07-25T19:27:19.447Z,7.78
2022-07-25T19:29:49.273Z,7.28
2022-07-25T19:32:18.121Z,7.07
2022-07-25T19:34:46.442Z,6.97
2022-07-25T19:37:14.691Z,7.03
2022-07-25T19:39:42.778Z,7.15
2022-07-25T19:42:12.529Z,7.00
2022-07-25T19:44:41.259Z,7.70
2022-07-25T19:47:11.979Z,7.18
2022-07-25T19:49:41.079Z,7.15
2022-07-25T19:52:10.134Z,7.28
2022-07-25T19:54:38.825Z,7.40
2022-07-25T19:57:07.574Z,7.25
2022-07-25T19:59:35.765Z,7.50
2022-07-25T20:02:04.805Z,6.82
2022-07-25T20:04:34.290Z,7.40
2022-07-25T20:07:03.480Z,7.47
2022-07-25T20:09:31.727Z,7.20
2022-07-25T20:12:00.050Z,7.03
2022-07-25T20:14:28.121Z,6.95
2022-07-25T20:16:57.771Z,7.20
2022-07-25T20:19:26.109Z,6.80
2022-07-25T20:21:55.731Z,6.85
2022-07-25T20:24:23.782Z,7.10
2022-07-25T20:26:51.941Z,7.50
2022-07-25T20:29:20.262Z,7.07
2022-07-25T20:31:48.810Z,7.68
2022-07-25T20:34:19.509Z,7.07
2022-07-25T20:36:47.863Z,7.55
2022-07-25T20:39:17.454Z,7.50
2022-07-25T20:41:46.238Z,7.82
2022-07-25T20:44:14.310Z,7.57
2022-07-25T20:46:42.578Z,7.20
2022-07-25T20:49:12.685Z,7.45
2022-07-25T20:51:42.209Z,7.60
2022-07-25T20:54:10.849Z,7.05
2022-07-25T20:56:40.524Z,7.68
2022-07-25T20:59:09.131Z,7.18
2022-07-25T21:01:38.832Z,7.60
2022-07-25T21:04:07.872Z,7.38
2022-07-25T21:06:37.045Z,7.38
2022-07-25T21:09:06.150Z,7.53
2022-07-25T21:11:36.575Z,7.22
2022-07-25T21:14:06.775Z,6.65
2022-07-25T21:16:35.191Z,7.60
2022-07-25T21:19:03.376Z,7.05
2022-07-25T21:21:32.007Z,7.53
2022-07-25T21:24:00.189Z,7.72
2022-07-25T21:26:29.564Z,7.63
2022-07-25T21:28:57.578Z,7.20
2022-07-25T21:31:27.040Z,7.30
2022-07-25T21:33:55.245Z,7.10
2022-07-25T21:36:23.540Z,7.60
2022-07-25T21:38:51.634Z,7.45
2022-07-25T21:41:19.942Z,7.32
2022-07-25T21:43:48.490Z,8.38
2022-07-25T21:46:16.710Z,8.32
2022-07-25T21:49:00.167Z,8.43
2022-07-25T21:51:40.305Z,7.65
2022-07-25T21:54:09.526Z,8.75
2022-07-25T21:56:38.050Z,7.88
2022-07-25T21:59:07.136Z,7.82
2022-07-25T22:01:35.806Z,7.90
2022-07-25T22:04:06.671Z,8.90
2022-07-25T22:06:34.941Z,8.07
2022-07-25T22:09:03.386Z,8.35
2022-07-25T22:11:38.642Z,8.30
2022-07-25T22:14:14.285Z,8.35
2022-07-25T22:16:42.883Z,8.00
2022-07-25T22:19:12.616Z,7.78
2022-07-25T22:21:41.565Z,8.30
2022-07-25T22:24:10.801Z,7.97
2022-07-25T22:26:38.963Z,8.02
2022-07-25T22:29:07.574Z,8.23
2022-07-25T22:31:36.046Z,7.70
2022-07-25T22:34:04.634Z,7.82
2022-07-25T22:36:34.346Z,8.68
2022-07-25T22:39:02.457Z,8.15
2022-07-25T22:41:30.630Z,8.35
2022-07-25T22:44:00.021Z,8.48
2022-07-25T22:46:29.066Z,8.10
2022-07-25T22:48:59.159Z,8.30
2022-07-25T22:51:27.944Z,8.57
2022-07-25T22:53:57.876Z,8.85
2022-07-25T22:56:26.666Z,8.80
2022-07-25T22:58:55.370Z,8.55
2022-07-25T23:01:24.222Z,7.95
2022-07-25T23:03:52.776Z,8.73
2022-07-25T23:06:22.241Z,9.40
2022-07-25T23:08:51.129Z,9.13
2022-07-25T23:11:20.953Z,9.07
2022-07-25T23:13:49.095Z,9.23
2022-07-25T23:16:17.590Z,9.43
2022-07-25T23:18:45.856Z,9.85
2022-07-25T23:21:14.354Z,9.48
2022-07-25T23:23:42.766Z,9.77
2022-07-25T23:26:11.040Z,9.70
2022-07-25T23:28:40.639Z,9.23
2022-07-25T23:31:09.169Z,9.27
2022-07-25T23:33:37.491Z,9.43
2022-07-25T23:36:06.364Z,9.15
2022-07-25T23:38:34.767Z,10.38
2022-07-25T23:41:02.886Z,9.20
2022-07-25T23:43:54.386Z,10.00
2022-07-25T23:46:21.561Z,10.00
2022-07-25T23:48:58.198Z,9.93
2022-07-25T23:51:26.677Z,10.13
2022-07-25T23:53:55.177Z,10.02
2022-07-25T23:56:23.502Z,9.90
2022-07-25T23:58:52.621Z,9.73
